LFLB 221030Z AUTO 34011KT 7000 SCT030 OVC047 03/M04 Q1008 NOSIG

ElémentsDécodage
LFLB Station météo située sur l'aérodrome de CHAMBERY Aix-les-Bains
221030Z émis le 22 du mois à 10h30 UTC
AUTO Bulletin édité par un automate
34011KT vent du 340°, 11 noeuds
7000 visibilité horizontale de 7000 mètres
SCT030 nuages épars (3/8 à 4/8) à 3000 pieds
OVC047 couverture nuageuse totale (8/8) à 4700 pieds
03/M04 température 03°C, point de rosée -04°C
 soit une humidité relative de 60%
Q1008 la pression au niveau de la mer (QNH) est de 1008 hPa
NOSIG Pas de changement significatif prévu au cours des deux heures suivant l'heure de l'observation